createdAt,value
2023-03-23T15:58:39.750Z,3.30
2023-03-23T16:01:14.264Z,3.00
2023-03-23T16:03:47.775Z,3.03
2023-03-23T16:06:24.534Z,3.10
2023-03-23T16:08:56.598Z,3.00
2023-03-23T16:11:25.803Z,3.10
2023-03-23T16:13:53.284Z,2.85
2023-03-23T16:16:34.510Z,2.95
2023-03-23T16:19:01.345Z,3.00
2023-03-23T16:21:28.062Z,3.20
2023-03-23T16:23:56.267Z,2.78
2023-03-23T16:26:23.776Z,2.50
2023-03-23T16:28:51.779Z,2.60
2023-03-23T16:31:20.114Z,2.60
2023-03-23T16:33:46.911Z,2.90
2023-03-23T16:36:14.327Z,2.85
2023-03-23T16:38:49.020Z,2.85
2023-03-23T16:41:17.158Z,2.63
2023-03-23T16:43:44.243Z,3.20
2023-03-23T16:46:13.574Z,2.87
2023-03-23T16:48:40.707Z,2.58
2023-03-23T16:51:08.138Z,2.70
2023-03-23T16:53:35.845Z,2.80
2023-03-23T16:56:03.628Z,2.20
2023-03-23T16:58:30.505Z,2.80
2023-03-23T17:00:57.802Z,2.60
2023-03-23T17:03:24.813Z,2.50
2023-03-23T17:05:52.317Z,2.20
2023-03-23T17:08:19.996Z,2.38
2023-03-23T17:10:47.757Z,2.40
2023-03-23T17:13:14.693Z,2.60
2023-03-23T17:15:45.294Z,3.30
2023-03-23T17:18:14.978Z,2.40
2023-03-23T17:20:42.244Z,2.30
2023-03-23T17:23:09.098Z,2.10
2023-03-23T17:25:35.843Z,2.50
2023-03-23T17:28:06.386Z,2.30
2023-03-23T17:30:44.794Z,2.30
2023-03-23T17:33:12.747Z,2.30
2023-03-23T17:35:39.771Z,1.90
2023-03-23T17:38:06.613Z,2.00
2023-03-23T17:40:33.415Z,2.40
2023-03-23T17:43:00.180Z,2.15
2023-03-23T17:45:26.912Z,2.25
2023-03-23T17:47:53.696Z,2.70
2023-03-23T17:50:20.549Z,2.15
2023-03-23T17:52:47.433Z,2.15
2023-03-23T17:55:14.069Z,1.95
2023-03-23T17:57:41.193Z,1.90
2023-03-23T18:00:09.004Z,2.15
2023-03-23T18:02:38.927Z,2.00
2023-03-23T18:05:08.620Z,1.90
2023-03-23T18:07:36.289Z,1.77
2023-03-23T18:10:04.280Z,1.83
2023-03-23T18:12:31.020Z,2.00
2023-03-23T18:14:58.495Z,1.87
2023-03-23T18:17:26.152Z,1.98
2023-03-23T18:19:53.281Z,2.10
2023-03-23T18:22:20.163Z,1.73
2023-03-23T18:24:47.474Z,1.85
2023-03-23T18:27:14.693Z,2.00
2023-03-23T18:29:41.763Z,1.90
2023-03-23T18:32:09.053Z,1.80
2023-03-23T18:34:37.678Z,2.25
2023-03-23T18:37:04.590Z,2.13
2023-03-23T18:39:33.933Z,2.10
2023-03-23T18:42:01.719Z,2.05
2023-03-23T18:44:28.461Z,2.20
2023-03-23T18:46:55.481Z,1.90
2023-03-23T18:49:22.855Z,2.13
2023-03-23T18:51:49.546Z,2.20
2023-03-23T18:54:17.463Z,1.67
2023-03-23T18:56:44.499Z,1.83
2023-03-23T18:59:11.605Z,1.80
2023-03-23T19:01:39.065Z,1.63
2023-03-23T19:04:06.801Z,1.80
2023-03-23T19:06:34.753Z,1.90
2023-03-23T19:09:02.133Z,1.92
2023-03-23T19:11:28.943Z,1.80
2023-03-23T19:14:02.453Z,2.10
2023-03-23T19:16:32.470Z,1.70
2023-03-23T19:19:01.546Z,1.70
2023-03-23T19:21:31.377Z,1.75
2023-03-23T19:23:58.918Z,1.65
2023-03-23T19:26:38.415Z,1.70
2023-03-23T19:31:43.310Z,1.75
2023-03-23T19:34:11.838Z,1.50
2023-03-23T19:36:39.464Z,1.55
2023-03-23T19:39:08.679Z,1.42
2023-03-23T19:41:36.300Z,1.60
2023-03-23T19:44:03.932Z,1.60
2023-03-23T19:46:31.607Z,1.43
2023-03-23T19:48:58.898Z,1.42
2023-03-23T19:51:26.698Z,1.50
2023-03-23T19:53:56.205Z,1.48
2023-03-23T19:56:23.246Z,1.58
2023-03-23T19:58:50.671Z,1.48
2023-03-23T20:01:17.827Z,1.45
2023-03-23T20:03:45.533Z,1.42
2023-03-23T20:06:15.020Z,1.40
2023-03-23T20:08:44.998Z,1.55
2023-03-23T20:11:14.489Z,1.52
2023-03-23T20:13:41.470Z,1.50
2023-03-23T20:16:09.373Z,1.30
2023-03-23T20:18:37.940Z,1.55
2023-03-23T20:21:08.776Z,1.40
2023-03-23T20:23:36.717Z,1.52
2023-03-23T20:26:09.267Z,1.40
2023-03-23T20:28:36.399Z,1.40
2023-03-23T20:31:24.697Z,1.20
2023-03-23T20:34:00.810Z,1.63
2023-03-23T20:36:45.057Z,1.27
2023-03-23T20:39:21.510Z,1.30
2023-03-23T20:41:54.414Z,1.50
2023-03-23T20:44:23.262Z,1.25
2023-03-23T20:46:52.122Z,1.25
2023-03-23T20:49:20.707Z,1.38
2023-03-23T20:51:48.035Z,1.33
2023-03-23T20:54:16.159Z,1.60
2023-03-23T20:56:44.216Z,1.50
2023-03-23T20:59:12.040Z,1.40
2023-03-23T21:01:39.851Z,1.20
2023-03-23T21:04:14.787Z,1.20
2023-03-23T21:06:43.056Z,1.50
2023-03-23T21:09:10.022Z,1.10
2023-03-23T21:11:37.245Z,1.48
2023-03-23T21:14:04.874Z,1.20
2023-03-23T21:16:31.665Z,1.20
2023-03-23T21:18:58.558Z,1.20
2023-03-23T21:21:27.296Z,1.20
2023-03-23T21:23:55.575Z,1.38
2023-03-23T21:26:24.718Z,1.25
2023-03-23T21:28:53.715Z,1.20
2023-03-23T21:31:23.246Z,1.17
2023-03-23T21:33:50.259Z,1.30
2023-03-23T21:36:17.039Z,1.23
2023-03-23T21:38:44.511Z,1.10
2023-03-23T21:41:13.874Z,1.02
2023-03-23T21:43:41.432Z,1.20
2023-03-23T21:46:09.756Z,1.20
2023-03-23T21:48:38.562Z,0.90
2023-03-23T21:51:12.318Z,1.10
2023-03-23T21:53:39.182Z,0.90
2023-03-23T21:56:09.534Z,0.93
2023-03-23T21:58:37.348Z,1.05
2023-03-23T22:01:05.208Z,1.15
2023-03-23T22:03:34.567Z,1.13
2023-03-23T22:06:11.409Z,1.15
2023-03-23T22:08:39.814Z,0.90
2023-03-23T22:11:12.364Z,1.00
2023-03-23T22:13:40.582Z,0.83
2023-03-23T22:16:11.396Z,1.08
2023-03-23T22:18:38.906Z,1.10
2023-03-23T22:21:07.270Z,0.90
2023-03-23T22:23:35.574Z,1.02
2023-03-23T22:26:03.733Z,0.93
2023-03-23T22:28:31.020Z,0.90
2023-03-23T22:31:05.491Z,0.90
2023-03-23T22:33:33.529Z,0.90
2023-03-23T22:36:06.119Z,1.10
2023-03-23T22:38:37.613Z,1.00
2023-03-23T22:41:07.119Z,0.80
2023-03-23T22:43:38.009Z,1.10
2023-03-23T22:46:05.841Z,0.88
2023-03-23T22:48:33.146Z,1.10
2023-03-23T22:51:00.345Z,1.10
2023-03-23T22:53:27.438Z,0.80
2023-03-23T22:55:56.543Z,1.00
2023-03-23T22:58:25.190Z,0.95
2023-03-23T23:01:01.565Z,0.93
2023-03-23T23:03:30.000Z,1.00
2023-03-23T23:05:58.433Z,0.82
2023-03-23T23:08:26.751Z,0.98
2023-03-23T23:10:56.288Z,0.90
2023-03-23T23:13:24.247Z,1.10
2023-03-23T23:15:53.668Z,1.02
2023-03-23T23:18:20.605Z,1.08
2023-03-23T23:20:56.298Z,0.80
2023-03-23T23:23:24.536Z,0.82
2023-03-23T23:25:52.092Z,0.95
2023-03-23T23:28:20.436Z,1.00
2023-03-23T23:30:48.538Z,0.90
2023-03-23T23:33:15.998Z,0.90
2023-03-23T23:35:42.932Z,0.75
2023-03-23T23:38:12.299Z,0.83
2023-03-23T23:40:41.179Z,0.77
2023-03-23T23:43:10.758Z,0.90
2023-03-23T23:45:38.250Z,0.90
2023-03-23T23:48:05.999Z,0.85
2023-03-23T23:50:33.365Z,0.90
2023-03-23T23:53:00.700Z,0.80
2023-03-23T23:55:28.505Z,0.90
2023-03-23T23:57:56.024Z,0.75
